Aérodrome :
LOGIN :

S'inscrire | Disclaimer

   EN    FR    IT 

 










Légende :    VFR   VFR Marginal   IFR   IFR Intensif   IFR Très Intensif
Visi : 
Plafond : 
>= 8 km
>= 3000ft
5 à 8 km
1000 à 3000 ft
1500m à 5 km
500 à 1000 ft
800 à 1500m
200 à 500 ft
< 800m
< 200 ft
Symboles :   Orages  Brouillard  Fortes neiges  Fortes précipitations  Vent > 20 kt
SIGMETs :   Divers  Orages  Givrage  Turbulence  Onde Orograph.  Cendres Volcan.







- Altitude de l'aérodrome : 80 ft
- Code IATA : LPL
- Voir les cartes d'approche


EGGP - Liverpool John Lennon

DERNIER METAR :
  • 192250Z 14011KT 110V180 9999 VCSH FEW012 BKN037 14/13 Q0993

METARs EXPIRÉS :
  • 192220Z 13012G22KT 110V170 9999 VCSH FEW012 BKN034 14/13 Q0993
  • 192150Z 14012KT 110V170 9999 VCSH SCT013 BKN034 14/13 Q0993
  • 192120Z 13011KT 100V170 9999 VCSH SCT013 BKN020 14/13 Q0994
  • 192050Z 12009KT 9999 VCSH SCT015 BKN024 14/12 Q0994
  • 192020Z 12011KT 090V150 9999 -RA FEW013 SCT018 BKN024 14/13 Q0994

TAF TAF EGGP
Valide du 19 à 18h jusqu'au 20 à 18h UTC


191703Z 1918/2018 16008KT 9999 FEW006 SCT030
TEMPO 1918/1924 8000 -RA BKN006
PROB30
TEMPO 1918/1924 16018KT 4000 RA BKN004
PROB30
TEMPO 2006/2012 6000 RA BKN008
BECMG 2009/2012 25010KT
TEMPO 2012/2015 BKN012
BECMG 2015/2018 18014KT
ATIS : +44 151 907 2000 (option 5 or ext 5150)
Météo : +44 871 750 5150
Pas de NOTAMs connus pour ce terrain.
1 SIGMET publié pour la FIR London (EGTT) :
 
Turbulence forte
EGTT SIGMET 03 VALID 192020/192330 EGRR
EGTT LONDON FIR SEV TURB FCST WI N5149 W00608 - N5024 W00401 - N5034 W00229 - N5000 W00200 - N4919 W00538 - N5053 W00720 - N5149 W00608 SFC/FL060 MOV E 20KT NC=



MET'MAP, la Météo Aéronautique d'un coup d'oeil ! - Copyright ORBIFLY Décembre 2007 - Disclaimer

ORBIFLY MET'MAP TEAM :

Programmation & Développement : Alexandra Zaïnal
Conception & Développement : Baudouin d'Aumeries
Co-Programmation & Développement : Marc-Olivier Méhu
Soutien technique & logistique : Manuel Goepfert

Contact : metmap@orbifly.com




SOURCES & CREDITS :

   NOAA